createdAt,value
2022-10-19T00:00:09.555Z,13.40
2022-10-19T00:02:57.426Z,13.32
2022-10-19T00:05:45.318Z,13.27
2022-10-19T00:08:34.637Z,13.18
2022-10-19T00:11:23.667Z,13.20
2022-10-19T00:14:14.975Z,13.19
2022-10-19T00:17:02.979Z,13.23
2022-10-19T00:19:50.959Z,13.20
2022-10-19T00:22:39.265Z,13.28
2022-10-19T00:25:28.625Z,13.29
2022-10-19T00:28:16.545Z,13.38
2022-10-19T00:31:05.896Z,13.38
2022-10-19T00:33:54.728Z,13.52
2022-10-19T00:36:42.625Z,13.56
2022-10-19T00:39:30.695Z,13.53
2022-10-19T00:42:19.928Z,13.69
2022-10-19T00:45:14.525Z,13.69
2022-10-19T00:48:02.514Z,13.72
2022-10-19T00:50:51.980Z,13.71
2022-10-19T00:53:40.325Z,13.68
2022-10-19T00:56:28.274Z,13.67
2022-10-19T00:59:22.029Z,13.64
2022-10-19T01:02:10.032Z,13.56
2022-10-19T01:04:59.286Z,13.63
2022-10-19T01:07:47.222Z,13.57
2022-10-19T01:10:46.651Z,13.64
2022-10-19T01:13:44.953Z,13.58
2022-10-19T01:16:41.713Z,13.58
2022-10-19T01:19:51.962Z,13.71
2022-10-19T01:22:56.624Z,13.67
2022-10-19T01:25:55.470Z,13.74
2022-10-19T01:28:56.333Z,13.77
2022-10-19T01:31:50.497Z,13.77
2022-10-19T01:34:47.183Z,13.78
2022-10-19T01:37:41.005Z,13.78
2022-10-19T01:40:34.438Z,13.76
2022-10-19T01:43:34.336Z,13.85
2022-10-19T01:46:28.253Z,13.77
2022-10-19T01:49:21.674Z,13.68
2022-10-19T01:52:14.238Z,13.62
2022-10-19T01:55:04.414Z,13.60
2022-10-19T01:57:59.146Z,13.55
2022-10-19T02:00:50.725Z,13.49
2022-10-19T02:03:40.097Z,13.48
2022-10-19T02:06:29.500Z,13.45
2022-10-19T02:09:18.534Z,13.65
2022-10-19T02:12:10.357Z,13.57
2022-10-19T02:15:02.554Z,13.69
2022-10-19T02:17:53.445Z,13.73
2022-10-19T02:20:41.396Z,13.67
2022-10-19T02:23:30.910Z,13.61
2022-10-19T02:26:19.461Z,13.56
2022-10-19T02:29:07.862Z,13.48
2022-10-19T02:31:55.857Z,13.22
2022-10-19T02:34:43.822Z,13.14
2022-10-19T02:37:31.744Z,12.77
2022-10-19T02:40:22.010Z,12.81
2022-10-19T02:43:13.898Z,12.64
2022-10-19T02:46:06.569Z,12.65
2022-10-19T02:48:56.080Z,12.54
2022-10-19T02:51:59.485Z,12.56
2022-10-19T02:54:47.466Z,12.58
2022-10-19T02:57:37.403Z,12.59
2022-10-19T03:00:25.464Z,12.58
2022-10-19T03:03:13.415Z,12.59
2022-10-19T03:06:01.329Z,12.64
2022-10-19T03:08:49.263Z,12.71
2022-10-19T03:11:37.383Z,12.82
2022-10-19T03:14:26.673Z,12.87
2022-10-19T03:17:14.736Z,12.95
2022-10-19T03:20:02.798Z,13.00
2022-10-19T03:25:44.256Z,13.09
2022-10-19T03:28:33.182Z,13.23
2022-10-19T03:31:22.462Z,13.41
2022-10-19T03:34:10.355Z,13.59
2022-10-19T03:36:59.215Z,13.67
2022-10-19T03:39:47.202Z,13.73
2022-10-19T03:42:35.167Z,13.40
2022-10-19T03:45:23.099Z,13.28
2022-10-19T03:48:12.326Z,13.42
2022-10-19T03:51:00.961Z,13.40
2022-10-19T03:53:52.655Z,13.51
2022-10-19T03:56:40.577Z,13.54
2022-10-19T03:59:28.578Z,13.52
2022-10-19T04:02:16.528Z,13.46
2022-10-19T04:05:06.786Z,13.40
2022-10-19T04:07:54.677Z,13.34
2022-10-19T04:10:42.588Z,13.36
2022-10-19T04:13:31.406Z,13.22
2022-10-19T04:16:20.198Z,13.29
2022-10-19T04:19:08.202Z,13.33
2022-10-19T04:21:57.492Z,13.23
2022-10-19T04:24:45.398Z,13.26
2022-10-19T04:27:33.634Z,13.25
2022-10-19T04:30:21.791Z,13.28
2022-10-19T04:33:09.761Z,13.24
2022-10-19T04:35:59.432Z,13.20
2022-10-19T04:38:48.849Z,13.17
2022-10-19T04:41:38.447Z,12.93
2022-10-19T04:44:26.405Z,13.18
2022-10-19T04:47:14.352Z,13.12
2022-10-19T04:50:02.327Z,13.20
2022-10-19T04:52:50.230Z,13.26
2022-10-19T04:55:42.762Z,13.34
2022-10-19T04:58:30.668Z,13.25
2022-10-19T05:01:20.863Z,13.16
2022-10-19T05:04:11.056Z,13.23
2022-10-19T05:06:59.003Z,13.28
2022-10-19T05:09:46.879Z,13.21
2022-10-19T05:12:37.041Z,13.17
2022-10-19T05:15:24.979Z,13.22
2022-10-19T05:18:12.888Z,13.23
2022-10-19T05:21:05.779Z,12.91
2022-10-19T05:23:54.808Z,13.17
2022-10-19T05:26:42.711Z,13.25
2022-10-19T05:29:33.759Z,13.15
2022-10-19T05:32:21.678Z,13.02
2022-10-19T05:35:09.959Z,13.08
2022-10-19T05:37:57.967Z,13.11
2022-10-19T05:40:50.367Z,13.04
2022-10-19T05:43:42.922Z,12.97
2022-10-19T05:46:33.735Z,13.15
2022-10-19T05:49:23.146Z,13.07
2022-10-19T05:52:11.061Z,13.07
2022-10-19T05:54:59.222Z,13.10
2022-10-19T05:57:47.157Z,13.08
2022-10-19T06:00:35.100Z,13.06
2022-10-19T06:03:25.871Z,12.89
2022-10-19T06:05:54.008Z,12.88
2022-10-19T06:08:23.509Z,12.79
2022-10-19T06:10:51.637Z,12.74
2022-10-19T06:13:20.602Z,12.37
2022-10-19T06:15:52.148Z,12.65
2022-10-19T06:18:20.302Z,12.72
2022-10-19T06:20:49.239Z,12.69
2022-10-19T06:23:16.846Z,12.66
2022-10-19T06:25:44.525Z,12.64
2022-10-19T06:28:12.279Z,12.58
2022-10-19T06:30:40.742Z,12.59
2022-10-19T06:33:09.022Z,12.56
2022-10-19T06:35:38.280Z,12.53
2022-10-19T06:38:07.270Z,12.52
2022-10-19T06:40:35.605Z,12.53
2022-10-19T06:43:03.330Z,12.50
2022-10-19T06:45:35.526Z,12.72
2022-10-19T06:48:06.750Z,12.83
2022-10-19T06:50:35.661Z,12.85
2022-10-19T06:53:03.323Z,12.93
2022-10-19T06:55:32.309Z,12.94
2022-10-19T06:58:01.591Z,13.09
2022-10-19T07:00:30.241Z,13.21
2022-10-19T07:02:59.505Z,13.31
2022-10-19T07:05:27.327Z,13.41
2022-10-19T07:07:55.009Z,13.52
2022-10-19T07:10:22.673Z,13.59
2022-10-19T07:12:51.667Z,13.73
2022-10-19T07:15:19.313Z,13.71
2022-10-19T07:17:46.921Z,13.78
2022-10-19T07:20:14.582Z,13.91
2022-10-19T07:22:42.213Z,13.98
2022-10-19T07:25:10.155Z,14.11
2022-10-19T07:27:40.040Z,14.13
2022-10-19T07:30:09.937Z,14.26
2022-10-19T07:32:37.603Z,14.25
2022-10-19T07:35:06.145Z,14.39
2022-10-19T07:37:34.036Z,14.50
2022-10-19T07:40:01.812Z,14.36
2022-10-19T07:42:30.331Z,14.43
2022-10-19T07:44:57.932Z,14.27
2022-10-19T07:47:27.078Z,14.30
2022-10-19T07:49:54.766Z,14.16
2022-10-19T07:52:22.463Z,14.20
2022-10-19T07:54:50.091Z,14.38
2022-10-19T07:57:17.871Z,14.51
2022-10-19T07:59:45.513Z,14.81
2022-10-19T08:02:16.750Z,14.96
2022-10-19T08:05:00.405Z,15.09
2022-10-19T08:07:29.734Z,15.23
2022-10-19T08:09:57.421Z,15.30
2022-10-19T08:12:25.107Z,15.40
2022-10-19T08:14:54.317Z,15.63
2022-10-19T08:17:21.934Z,15.87
2022-10-19T08:19:50.909Z,16.19
2022-10-19T08:22:18.538Z,16.17
2022-10-19T08:24:46.215Z,16.39
2022-10-19T08:27:14.745Z,16.51
2022-10-19T08:29:42.414Z,16.55
2022-10-19T08:32:10.267Z,16.93
2022-10-19T08:34:38.048Z,16.53
2022-10-19T08:37:19.703Z,17.13
2022-10-19T08:39:54.642Z,17.13
2022-10-19T08:42:25.863Z,17.13
2022-10-19T08:45:16.331Z,17.07
2022-10-19T08:47:59.062Z,17.13
2022-10-19T08:50:29.438Z,17.21
2022-10-19T08:53:02.838Z,17.36
2022-10-19T08:55:40.979Z,17.34
2022-10-19T08:58:22.309Z,17.91
2022-10-19T09:00:59.671Z,18.16
2022-10-19T09:03:54.981Z,18.00
2022-10-19T09:06:28.190Z,17.86
2022-10-19T09:08:58.568Z,17.63
2022-10-19T09:11:29.588Z,17.66
2022-10-19T09:14:05.697Z,17.20
2022-10-19T09:16:34.736Z,17.51
2022-10-19T09:19:02.686Z,17.62
2022-10-19T09:21:45.915Z,17.68
2022-10-19T09:24:28.595Z,17.76
2022-10-19T09:26:59.720Z,17.67
2022-10-19T09:29:38.109Z,17.93
2022-10-19T09:32:13.101Z,17.98
2022-10-19T09:34:45.523Z,18.19
2022-10-19T09:37:20.165Z,18.62
2022-10-19T09:39:55.019Z,18.80
2022-10-19T09:42:28.997Z,18.98
2022-10-19T09:44:59.090Z,19.02
2022-10-19T09:47:35.777Z,19.29
2022-10-19T09:50:14.806Z,18.97
2022-10-19T09:52:44.952Z,18.78
2022-10-19T09:55:27.051Z,18.69
2022-10-19T09:58:01.870Z,18.81
2022-10-19T10:00:39.493Z,19.08
2022-10-19T10:03:07.603Z,19.45
2022-10-19T10:05:37.777Z,19.37
2022-10-19T10:08:13.614Z,19.91
2022-10-19T10:10:46.777Z,19.86
2022-10-19T10:13:18.821Z,19.00
2022-10-19T10:15:49.825Z,19.59
2022-10-19T10:18:19.669Z,19.24
2022-10-19T10:21:00.555Z,19.25
2022-10-19T10:23:31.533Z,19.10
2022-10-19T10:26:01.588Z,18.82
2022-10-19T10:28:30.781Z,18.56
2022-10-19T10:31:03.636Z,18.27
2022-10-19T10:33:44.201Z,18.23
2022-10-19T10:36:13.481Z,18.78
2022-10-19T10:38:46.474Z,19.28
2022-10-19T10:41:18.114Z,19.94
2022-10-19T10:43:57.504Z,20.00
2022-10-19T10:46:30.033Z,19.79
2022-10-19T10:49:00.099Z,19.72
2022-10-19T10:51:34.429Z,18.96
2022-10-19T10:54:16.740Z,19.02
2022-10-19T10:57:01.852Z,18.96
2022-10-19T10:59:41.678Z,18.93
2022-10-19T11:04:59.882Z,19.45
2022-10-19T11:07:30.115Z,19.29
2022-10-19T11:09:59.623Z,18.94
2022-10-19T11:12:36.981Z,18.97
2022-10-19T11:15:13.662Z,19.19
2022-10-19T11:17:55.463Z,19.04
2022-10-19T11:20:25.766Z,19.06
2022-10-19T11:22:58.827Z,19.30
2022-10-19T11:25:37.477Z,19.20
2022-10-19T11:28:20.431Z,18.98
2022-10-19T11:30:56.898Z,19.20
2022-10-19T11:33:39.160Z,19.05
2022-10-19T11:36:17.365Z,19.06
2022-10-19T11:38:53.921Z,18.87
2022-10-19T11:41:31.633Z,18.77
2022-10-19T11:44:21.051Z,18.48
2022-10-19T11:46:58.238Z,18.07
2022-10-19T11:49:41.445Z,18.00
2022-10-19T11:52:16.906Z,18.01
2022-10-19T11:54:59.212Z,18.41
2022-10-19T11:57:32.261Z,18.56
2022-10-19T12:00:15.460Z,18.91
2022-10-19T12:03:19.457Z,19.15
2022-10-19T12:05:57.174Z,19.04
2022-10-19T12:08:38.292Z,19.12
2022-10-19T12:11:19.038Z,19.09
2022-10-19T12:13:51.992Z,19.25
2022-10-19T12:16:26.258Z,19.20
2022-10-19T12:19:00.339Z,19.27
2022-10-19T12:21:31.523Z,19.04
2022-10-19T12:24:02.800Z,19.07
2022-10-19T12:26:35.006Z,18.90
2022-10-19T12:29:06.449Z,18.93
2022-10-19T12:31:36.957Z,19.09
2022-10-19T12:34:10.922Z,19.01
2022-10-19T12:36:44.302Z,19.09
2022-10-19T12:39:18.565Z,19.04
2022-10-19T12:41:53.073Z,18.96
2022-10-19T12:44:58.753Z,18.90
2022-10-19T12:47:28.007Z,19.03
2022-10-19T12:49:58.918Z,18.84
2022-10-19T12:52:44.283Z,18.67
2022-10-19T12:55:27.752Z,18.82
2022-10-19T12:58:02.373Z,18.76
2022-10-19T13:00:32.700Z,18.47
2022-10-19T13:03:05.750Z,18.54
2022-10-19T13:05:35.532Z,18.36
2022-10-19T13:08:08.001Z,18.34
2022-10-19T13:10:38.604Z,18.25
2022-10-19T13:13:06.584Z,18.12
2022-10-19T13:15:55.124Z,17.96
2022-10-19T13:19:06.054Z,17.99
2022-10-19T13:21:53.097Z,18.14
2022-10-19T13:24:29.054Z,18.10
2022-10-19T13:27:26.142Z,18.06
2022-10-19T13:29:53.811Z,18.02
2022-10-19T13:32:33.385Z,18.22
2022-10-19T13:35:31.399Z,18.38
2022-10-19T13:38:24.097Z,18.25
2022-10-19T13:41:02.199Z,18.64
2022-10-19T13:43:32.975Z,18.39
2022-10-19T13:46:07.057Z,18.36
2022-10-19T13:48:46.856Z,18.34
2022-10-19T13:51:21.654Z,18.36
2022-10-19T13:54:01.224Z,18.42
2022-10-19T13:57:00.638Z,18.49
2022-10-19T14:00:12.858Z,18.20
2022-10-19T14:02:56.866Z,18.04
2022-10-19T14:05:44.870Z,17.97
2022-10-19T14:08:31.102Z,17.78
2022-10-19T14:11:04.152Z,17.89
2022-10-19T14:13:32.678Z,17.84
2022-10-19T14:16:02.842Z,17.57
2022-10-19T14:18:33.422Z,17.43
2022-10-19T14:21:02.951Z,16.92
2022-10-19T14:23:33.092Z,16.98
2022-10-19T14:26:05.375Z,16.81
2022-10-19T14:28:34.410Z,16.84
2022-10-19T14:31:04.246Z,16.71
2022-10-19T14:33:35.449Z,16.74
2022-10-19T14:36:03.542Z,16.87
2022-10-19T14:38:35.248Z,16.79
2022-10-19T14:41:05.528Z,16.82
2022-10-19T14:43:35.236Z,16.51
2022-10-19T14:46:11.864Z,16.34
2022-10-19T14:48:40.932Z,16.39
2022-10-19T14:51:17.438Z,16.38
2022-10-19T14:53:48.493Z,16.37
2022-10-19T14:56:22.500Z,16.40
2022-10-19T14:58:54.535Z,16.38
2022-10-19T15:01:22.765Z,16.07
2022-10-19T15:03:51.362Z,16.05
2022-10-19T15:06:23.691Z,16.02
2022-10-19T15:11:31.127Z,15.78
2022-10-19T15:14:03.602Z,15.79
2022-10-19T15:16:34.805Z,15.65
2022-10-19T15:19:07.082Z,15.63
2022-10-19T15:21:34.743Z,15.51
2022-10-19T15:24:16.611Z,15.54
2022-10-19T15:27:06.589Z,15.56
2022-10-19T15:29:36.622Z,15.49
2022-10-19T15:32:15.390Z,15.53
2022-10-19T15:34:44.945Z,15.57
2022-10-19T15:37:19.712Z,15.50
2022-10-19T15:39:48.528Z,15.64
2022-10-19T15:42:37.389Z,15.34
2022-10-19T15:45:06.117Z,15.54
2022-10-19T15:47:34.596Z,15.56
2022-10-19T15:50:03.856Z,15.48
2022-10-19T15:52:34.187Z,15.36
2022-10-19T15:55:02.925Z,15.33
2022-10-19T15:57:34.463Z,15.23
2022-10-19T16:00:07.798Z,15.07
2022-10-19T16:02:35.506Z,14.94
2022-10-19T16:05:03.219Z,14.96
2022-10-19T16:07:33.270Z,14.86
2022-10-19T16:10:01.252Z,14.69
2022-10-19T16:12:28.890Z,14.63
2022-10-19T16:14:57.867Z,14.43
2022-10-19T16:17:25.660Z,14.29
2022-10-19T16:19:53.285Z,14.47
2022-10-19T16:22:21.271Z,14.31
2022-10-19T16:24:48.982Z,14.15
2022-10-19T16:27:16.958Z,14.11
2022-10-19T16:29:45.238Z,14.12
2022-10-19T16:32:14.397Z,14.05
2022-10-19T16:34:42.231Z,13.98
2022-10-19T16:37:09.822Z,14.01
2022-10-19T16:39:37.459Z,13.93
2022-10-19T16:42:05.244Z,13.95
2022-10-19T16:44:33.026Z,13.90
2022-10-19T16:47:00.721Z,13.87
2022-10-19T16:49:29.880Z,13.78
2022-10-19T16:51:57.872Z,13.76
2022-10-19T16:54:26.438Z,13.80
2022-10-19T16:56:55.453Z,13.82
2022-10-19T16:59:23.521Z,13.64
2022-10-19T17:01:51.468Z,13.75
2022-10-19T17:04:19.209Z,13.66
2022-10-19T17:06:48.465Z,13.38
2022-10-19T17:12:04.111Z,13.59
2022-10-19T17:14:31.891Z,13.54
2022-10-19T17:16:59.717Z,13.57
2022-10-19T17:19:27.368Z,13.54
2022-10-19T17:21:57.574Z,13.49
2022-10-19T17:24:25.627Z,13.42
2022-10-19T17:26:54.019Z,13.38
2022-10-19T17:29:23.288Z,13.39
2022-10-19T17:31:51.529Z,13.40
2022-10-19T17:34:19.400Z,13.44
2022-10-19T17:36:47.295Z,13.38
2022-10-19T17:39:18.614Z,13.38
2022-10-19T17:41:46.800Z,13.35
2022-10-19T17:44:14.903Z,13.32
2022-10-19T17:46:42.678Z,13.49
2022-10-19T17:49:11.086Z,13.50
2022-10-19T17:51:39.638Z,13.45
2022-10-19T17:54:09.385Z,13.32
2022-10-19T17:56:39.099Z,13.30
2022-10-19T17:59:07.934Z,13.27
2022-10-19T18:01:36.995Z,13.29
2022-10-19T18:04:05.720Z,13.25
2022-10-19T18:06:35.656Z,13.13
2022-10-19T18:09:05.827Z,13.12
2022-10-19T18:11:36.932Z,13.27
2022-10-19T18:14:07.830Z,13.25
2022-10-19T18:16:37.792Z,13.32
2022-10-19T18:19:07.154Z,13.08
2022-10-19T18:21:38.360Z,13.27
2022-10-19T18:24:09.062Z,13.29
2022-10-19T18:26:40.049Z,13.22
2022-10-19T18:29:13.460Z,13.29
2022-10-19T18:31:41.281Z,13.21
2022-10-19T18:34:14.384Z,13.18
2022-10-19T18:36:42.786Z,13.07
2022-10-19T18:39:11.463Z,12.99
2022-10-19T18:41:40.390Z,12.92
2022-10-19T18:44:09.731Z,12.89
2022-10-19T18:46:38.753Z,12.80
2022-10-19T18:49:09.112Z,12.81
2022-10-19T18:51:37.438Z,12.99
2022-10-19T18:54:05.558Z,13.02
2022-10-19T18:56:36.311Z,13.01
2022-10-19T18:59:04.338Z,13.12
2022-10-19T19:01:32.268Z,13.20
2022-10-19T19:04:07.628Z,13.08
2022-10-19T19:06:36.231Z,13.16
2022-10-19T19:09:06.693Z,13.04
2022-10-19T19:11:37.382Z,12.93
2022-10-19T19:14:07.609Z,12.99
2022-10-19T19:16:37.847Z,12.95
2022-10-19T19:19:07.671Z,12.68
2022-10-19T19:21:36.567Z,12.92
2022-10-19T19:24:06.695Z,12.79
2022-10-19T19:26:36.386Z,12.76
2022-10-19T19:29:04.852Z,12.92
2022-10-19T19:31:32.742Z,12.87
2022-10-19T19:34:01.773Z,12.88
2022-10-19T19:36:30.856Z,12.90
2022-10-19T19:38:59.129Z,12.91
2022-10-19T19:41:28.736Z,12.88
2022-10-19T19:43:57.496Z,12.84
2022-10-19T19:46:25.328Z,12.85
2022-10-19T19:49:00.045Z,12.77
2022-10-19T19:51:28.547Z,12.74
2022-10-19T19:53:58.128Z,12.87
2022-10-19T19:56:26.289Z,12.90
2022-10-19T19:58:56.776Z,12.93
2022-10-19T20:01:24.575Z,12.97
2022-10-19T20:04:11.704Z,12.85
2022-10-19T20:06:57.720Z,13.14
2022-10-19T20:09:47.032Z,13.12
2022-10-19T20:12:34.939Z,13.15
2022-10-19T20:15:22.937Z,13.07
2022-10-19T20:18:10.873Z,12.98
2022-10-19T20:21:02.069Z,12.97
2022-10-19T20:23:50.716Z,13.09
2022-10-19T20:26:40.167Z,13.00
2022-10-19T20:29:28.106Z,12.99
2022-10-19T20:32:15.999Z,13.10
2022-10-19T20:35:04.614Z,13.20
2022-10-19T20:37:52.582Z,13.23
2022-10-19T20:40:41.456Z,13.21
2022-10-19T20:43:30.774Z,13.19
2022-10-19T20:46:22.112Z,13.08
2022-10-19T20:49:12.573Z,13.08
2022-10-19T20:52:00.519Z,13.05
2022-10-19T20:54:49.044Z,12.91
2022-10-19T20:57:36.948Z,13.07
2022-10-19T21:00:26.309Z,13.04
2022-10-19T21:03:14.267Z,13.16
2022-10-19T21:06:06.564Z,12.94
2022-10-19T21:08:54.888Z,13.01
2022-10-19T21:11:44.236Z,13.05
2022-10-19T21:14:32.178Z,13.01
2022-10-19T21:17:21.509Z,12.89
2022-10-19T21:20:10.205Z,12.94
2022-10-19T21:22:59.056Z,12.87
2022-10-19T21:25:58.080Z,12.77
2022-10-19T21:28:50.662Z,12.74
2022-10-19T21:31:39.758Z,12.77
2022-10-19T21:34:30.855Z,12.76
2022-10-19T21:37:18.778Z,12.76
2022-10-19T21:40:07.707Z,12.76
2022-10-19T21:42:55.617Z,12.83
2022-10-19T21:45:43.505Z,12.71
2022-10-19T21:48:32.483Z,12.81
2022-10-19T21:51:29.076Z,12.75
2022-10-19T21:54:19.424Z,12.71
2022-10-19T21:57:07.290Z,12.79
2022-10-19T21:59:55.161Z,12.84
2022-10-19T22:02:42.996Z,12.90
2022-10-19T22:05:30.875Z,12.86
2022-10-19T22:08:20.191Z,12.76
2022-10-19T22:11:10.109Z,12.82
2022-10-19T22:13:59.703Z,12.86
2022-10-19T22:16:47.610Z,12.43
2022-10-19T22:19:35.564Z,12.81
2022-10-19T22:22:23.610Z,12.81
2022-10-19T22:25:12.815Z,12.73
2022-10-19T22:28:00.873Z,12.85
2022-10-19T22:30:53.783Z,12.88
2022-10-19T22:33:42.210Z,12.90
2022-10-19T22:36:30.342Z,12.88
2022-10-19T22:39:18.664Z,12.78
2022-10-19T22:42:07.875Z,12.68
2022-10-19T22:44:55.740Z,12.86
2022-10-19T22:47:43.579Z,12.88
2022-10-19T22:50:31.451Z,12.89
2022-10-19T22:53:19.293Z,12.86
2022-10-19T22:56:08.579Z,12.86
2022-10-19T22:59:00.783Z,12.66
2022-10-19T23:01:48.701Z,12.81
2022-10-19T23:04:36.652Z,12.77
2022-10-19T23:07:24.632Z,12.75
2022-10-19T23:10:12.601Z,12.74
2022-10-19T23:13:00.468Z,12.71
2022-10-19T23:15:51.761Z,12.76
2022-10-19T23:18:41.656Z,12.79
2022-10-19T23:21:29.568Z,12.82
2022-10-19T23:24:17.517Z,12.72
2022-10-19T23:27:05.836Z,12.75
2022-10-19T23:29:53.760Z,12.75
2022-10-19T23:32:43.012Z,12.72
2022-10-19T23:35:30.921Z,12.64
2022-10-19T23:38:19.057Z,12.73
2022-10-19T23:41:07.590Z,12.76
2022-10-19T23:43:55.522Z,12.71
2022-10-19T23:46:43.421Z,12.60
2022-10-19T23:49:33.029Z,12.72
2022-10-19T23:52:20.933Z,12.59
2022-10-19T23:55:10.005Z,12.55
2022-10-19T23:57:57.941Z,12.51
